createdAt,value
2019-05-07T00:02:09.528Z,11.69
2019-05-07T00:07:14.201Z,12.20
2019-05-07T00:12:18.846Z,11.37
2019-05-07T00:17:23.479Z,11.47
2019-05-07T00:22:28.227Z,11.82
2019-05-07T00:27:32.973Z,12.13
2019-05-07T00:32:38.732Z,12.46
2019-05-07T00:37:44.910Z,11.57
2019-05-07T00:43:06.147Z,12.62
2019-05-07T00:48:12.715Z,11.62
2019-05-07T00:53:17.168Z,11.13
2019-05-07T00:58:26.024Z,12.20
2019-05-07T01:03:28.015Z,11.92
2019-05-07T01:08:32.731Z,12.47
2019-05-07T01:13:37.362Z,12.32
2019-05-07T01:18:42.208Z,12.05
2019-05-07T01:23:47.062Z,12.56
2019-05-07T01:29:02.867Z,11.81
2019-05-07T01:34:23.992Z,11.92
2019-05-07T01:39:28.733Z,12.12
2019-05-07T01:44:33.579Z,11.41
2019-05-07T01:49:38.323Z,11.09
2019-05-07T01:54:43.091Z,11.38
2019-05-07T01:59:47.810Z,11.65
2019-05-07T02:04:54.192Z,11.74
2019-05-07T02:10:02.661Z,11.95
2019-05-07T02:15:09.006Z,11.54
2019-05-07T02:20:13.653Z,11.27
2019-05-07T02:25:19.514Z,11.37
2019-05-07T02:30:24.368Z,11.38
2019-05-07T02:35:28.998Z,10.86
2019-05-07T02:40:35.386Z,11.13
2019-05-07T02:45:53.336Z,10.60
2019-05-07T02:50:58.489Z,9.77
2019-05-07T02:56:04.778Z,10.70
2019-05-07T03:01:09.405Z,10.09
2019-05-07T03:06:14.038Z,9.79
2019-05-07T03:11:18.789Z,10.40
2019-05-07T03:16:38.833Z,10.64
2019-05-07T03:21:32.854Z,10.39
2019-05-07T03:26:43.422Z,10.46
2019-05-07T03:31:56.968Z,10.71
2019-05-07T03:37:06.188Z,10.82
2019-05-07T03:42:12.742Z,10.12
2019-05-07T03:47:23.549Z,10.39
2019-05-07T03:52:26.734Z,10.90
2019-05-07T03:57:33.402Z,10.82
2019-05-07T04:02:37.758Z,11.08
2019-05-07T04:07:43.102Z,11.43
2019-05-07T04:12:48.471Z,11.64
2019-05-07T04:17:53.776Z,10.85
2019-05-07T04:22:59.904Z,11.06
2019-05-07T04:28:06.285Z,11.54
2019-05-07T04:33:13.184Z,11.67
2019-05-07T04:38:18.024Z,11.19
2019-05-07T04:43:23.324Z,11.69
2019-05-07T04:48:28.344Z,12.06
2019-05-07T04:53:33.107Z,12.05
2019-05-07T04:58:37.923Z,12.23
2019-05-07T05:03:43.882Z,12.26
2019-05-07T05:08:52.156Z,12.23
2019-05-07T05:13:54.803Z,12.03
2019-05-07T05:18:59.542Z,12.28
2019-05-07T05:24:05.936Z,12.00
2019-05-07T05:29:12.162Z,12.20
2019-05-07T05:34:17.060Z,12.62
2019-05-07T05:39:22.514Z,13.18
2019-05-07T05:44:28.903Z,13.20
2019-05-07T05:49:33.643Z,13.09
2019-05-07T05:54:39.926Z,13.41
2019-05-07T05:59:51.285Z,12.81
2019-05-07T06:04:54.017Z,13.33
2019-05-07T06:10:16.681Z,13.56
2019-05-07T06:15:39.342Z,13.67
2019-05-07T06:20:48.695Z,13.51
2019-05-07T06:25:53.555Z,13.79
2019-05-07T06:30:58.390Z,13.89
2019-05-07T06:36:03.131Z,13.89
2019-05-07T06:41:09.411Z,13.70
2019-05-07T06:46:14.154Z,13.61
2019-05-07T06:51:18.804Z,14.17
2019-05-07T06:56:23.528Z,13.91
2019-05-07T07:01:32.113Z,14.40
2019-05-07T07:06:38.765Z,14.10
2019-05-07T07:12:02.184Z,13.51
2019-05-07T07:17:07.607Z,13.43
2019-05-07T07:22:12.932Z,13.78
2019-05-07T07:27:18.928Z,12.89
2019-05-07T07:32:27.972Z,13.13
2019-05-07T07:37:39.983Z,13.47
2019-05-07T07:42:44.615Z,13.03
2019-05-07T07:47:49.276Z,13.20
2019-05-07T07:52:54.012Z,13.18
2019-05-07T07:58:02.694Z,13.09
2019-05-07T08:03:09.127Z,12.80
2019-05-07T08:08:13.678Z,13.19
2019-05-07T08:13:19.241Z,13.71
2019-05-07T08:18:23.889Z,13.32
2019-05-07T08:23:28.512Z,13.26
2019-05-07T08:28:33.260Z,13.11
2019-05-07T08:33:42.632Z,13.10
2019-05-07T08:38:52.455Z,12.57
2019-05-07T08:44:10.752Z,12.58
2019-05-07T08:49:09.123Z,12.23
2019-05-07T08:54:13.940Z,12.50
2019-05-07T08:59:18.713Z,12.38
2019-05-07T09:04:23.349Z,12.74
2019-05-07T09:09:27.990Z,12.14
2019-05-07T09:14:32.740Z,12.79
2019-05-07T09:19:48.284Z,12.94
2019-05-07T09:24:44.065Z,13.14
2019-05-07T09:29:53.431Z,13.12
2019-05-07T09:35:02.869Z,13.03
2019-05-07T09:40:07.535Z,13.15
2019-05-07T09:45:12.258Z,13.12
2019-05-07T09:50:16.909Z,12.98
2019-05-07T09:55:23.311Z,12.64
2019-05-07T10:00:28.330Z,13.38
2019-05-07T10:05:35.116Z,12.75
2019-05-07T10:10:41.700Z,12.58
2019-05-07T10:15:46.650Z,12.68
2019-05-07T10:20:52.830Z,12.62
2019-05-07T10:25:57.489Z,12.60
2019-05-07T10:31:02.335Z,12.88
2019-05-07T10:36:07.049Z,12.77
2019-05-07T10:41:12.315Z,12.77
2019-05-07T10:46:27.602Z,12.34
2019-05-07T10:51:32.450Z,12.77
2019-05-07T10:56:37.190Z,12.82
2019-05-07T11:01:52.385Z,12.40
2019-05-07T11:06:57.121Z,12.99
2019-05-07T11:12:02.563Z,12.96
2019-05-07T11:17:09.172Z,13.07
2019-05-07T11:22:14.121Z,13.03
2019-05-07T11:27:18.880Z,12.79
2019-05-07T11:32:24.935Z,12.97
2019-05-07T11:37:29.755Z,13.05
2019-05-07T11:42:52.772Z,13.03
2019-05-07T11:47:57.492Z,12.79
2019-05-07T11:53:06.516Z,12.49
2019-05-07T11:58:12.861Z,13.00
2019-05-07T12:03:18.008Z,13.03
2019-05-07T12:08:36.552Z,13.01
2019-05-07T12:13:32.090Z,12.83
2019-05-07T12:18:36.196Z,12.73
2019-05-07T12:23:42.184Z,12.64
2019-05-07T12:28:47.216Z,12.78
2019-05-07T12:34:03.780Z,12.80
2019-05-07T12:39:08.891Z,12.84
2019-05-07T12:44:15.171Z,12.71
2019-05-07T12:49:21.984Z,12.58
2019-05-07T12:54:36.630Z,13.23
2019-05-07T12:59:40.187Z,13.16
2019-05-07T13:04:45.214Z,13.27
2019-05-07T13:09:51.920Z,13.44
2019-05-07T13:14:56.240Z,12.98
2019-05-07T13:20:01.850Z,13.15
2019-05-07T13:25:07.447Z,12.88
2019-05-07T13:30:13.234Z,13.15
2019-05-07T13:35:18.271Z,13.54
2019-05-07T13:40:39.711Z,12.90
2019-05-07T13:45:49.192Z,12.59
2019-05-07T13:50:54.001Z,12.78
2019-05-07T13:55:59.771Z,12.77
2019-05-07T14:01:22.965Z,12.80
2019-05-07T14:06:39.888Z,12.79
2019-05-07T14:11:44.511Z,12.46
2019-05-07T14:16:53.073Z,12.54
2019-05-07T14:21:57.791Z,12.21
2019-05-07T14:27:02.540Z,12.99
2019-05-07T14:32:25.536Z,12.72
2019-05-07T14:37:35.339Z,12.00
2019-05-07T14:42:45.362Z,12.74
2019-05-07T14:47:52.253Z,12.80
2019-05-07T14:52:57.805Z,12.71
2019-05-07T14:58:02.836Z,12.65
2019-05-07T15:03:09.276Z,12.80
2019-05-07T15:08:14.630Z,12.88
2019-05-07T15:13:21.801Z,12.73
2019-05-07T15:18:44.439Z,12.63
2019-05-07T15:23:52.863Z,12.16
2019-05-07T15:28:59.202Z,12.59
2019-05-07T15:34:04.205Z,12.75
2019-05-07T15:39:10.019Z,12.88
2019-05-07T15:44:15.856Z,12.67
2019-05-07T15:49:21.648Z,12.67
2019-05-07T15:54:27.574Z,12.72
2019-05-07T15:59:33.125Z,12.02
2019-05-07T16:04:37.984Z,12.32
2019-05-07T16:09:43.965Z,12.25
2019-05-07T16:14:52.303Z,12.22
2019-05-07T16:19:56.419Z,12.11
2019-05-07T16:25:04.982Z,12.69
2019-05-07T16:30:07.803Z,11.94
2019-05-07T16:35:12.614Z,12.71
2019-05-07T16:40:17.536Z,12.51
2019-05-07T16:45:22.142Z,12.32
2019-05-07T16:50:27.121Z,11.53
2019-05-07T16:55:36.949Z,11.80
2019-05-07T17:00:47.669Z,11.87
2019-05-07T17:05:53.754Z,12.68
2019-05-07T17:10:58.900Z,12.19
2019-05-07T17:16:03.716Z,12.64
2019-05-07T17:21:08.463Z,12.38
2019-05-07T17:26:13.333Z,12.11
2019-05-07T17:31:18.076Z,12.63
2019-05-07T17:36:23.933Z,12.46
2019-05-07T17:41:29.018Z,12.40
2019-05-07T17:46:33.600Z,12.30
2019-05-07T17:51:42.677Z,12.53
2019-05-07T17:56:47.419Z,12.45
2019-05-07T18:02:01.781Z,12.73
2019-05-07T18:07:06.614Z,12.60
2019-05-07T18:12:13.220Z,12.12
2019-05-07T18:17:22.008Z,12.00
2019-05-07T18:22:27.007Z,12.23
2019-05-07T18:27:32.989Z,12.14
2019-05-07T18:32:39.702Z,12.30
2019-05-07T18:37:53.840Z,12.42
2019-05-07T18:42:58.519Z,11.97
2019-05-07T18:48:05.174Z,11.98
2019-05-07T18:53:12.000Z,12.11
2019-05-07T18:58:16.629Z,11.80
2019-05-07T19:03:21.885Z,11.07
2019-05-07T19:08:26.799Z,11.28
2019-05-07T19:13:32.674Z,11.00
2019-05-07T19:18:38.207Z,10.65
2019-05-07T19:23:43.365Z,11.73
2019-05-07T19:28:48.373Z,11.52
2019-05-07T19:33:53.150Z,11.03
2019-05-07T19:38:58.562Z,10.80
2019-05-07T19:44:03.317Z,10.67
2019-05-07T19:49:08.806Z,11.25
2019-05-07T19:54:13.787Z,11.09
2019-05-07T19:59:18.972Z,11.60
2019-05-07T20:04:24.022Z,11.74
2019-05-07T20:09:32.358Z,11.49
2019-05-07T20:14:36.884Z,11.30
2019-05-07T20:19:41.809Z,11.99
2019-05-07T20:24:47.078Z,11.76
2019-05-07T20:29:52.301Z,11.69
2019-05-07T20:34:57.158Z,11.11
2019-05-07T20:40:03.126Z,11.22
2019-05-07T20:45:08.788Z,11.10
2019-05-07T20:50:13.637Z,11.42
2019-05-07T20:55:28.163Z,10.89
2019-05-07T21:00:27.840Z,11.11
2019-05-07T21:05:32.580Z,9.93
2019-05-07T21:10:37.320Z,10.80
2019-05-07T21:15:42.023Z,11.05
2019-05-07T21:20:46.697Z,11.04
2019-05-07T21:25:52.723Z,11.69
2019-05-07T21:30:57.622Z,11.64
2019-05-07T21:36:02.858Z,10.78
2019-05-07T21:41:07.624Z,11.14
2019-05-07T21:46:12.913Z,11.21
2019-05-07T21:51:17.581Z,10.41
2019-05-07T21:56:40.077Z,11.28
2019-05-07T22:01:48.706Z,10.87
2019-05-07T22:06:53.454Z,10.72
2019-05-07T22:11:58.405Z,11.16
2019-05-07T22:17:03.355Z,11.03
2019-05-07T22:22:08.096Z,11.25
2019-05-07T22:27:13.031Z,11.53
2019-05-07T22:32:19.528Z,11.33
2019-05-07T22:37:24.376Z,11.82
2019-05-07T22:42:39.876Z,11.17
2019-05-07T22:47:44.819Z,10.34
2019-05-07T22:52:49.564Z,10.81
2019-05-07T22:57:58.602Z,10.59
2019-05-07T23:03:03.244Z,10.27
2019-05-07T23:08:09.035Z,10.41
2019-05-07T23:13:13.579Z,10.59
2019-05-07T23:18:18.290Z,10.65
2019-05-07T23:23:23.040Z,11.26
2019-05-07T23:28:27.783Z,11.59
2019-05-07T23:33:32.521Z,11.41
2019-05-07T23:38:37.266Z,11.12
2019-05-07T23:43:42.422Z,11.74
2019-05-07T23:48:47.367Z,11.95
2019-05-07T23:53:52.106Z,11.78
2019-05-07T23:58:56.853Z,11.46
